createdAt,value
2024-04-25T00:00:00.219Z,89
2024-04-25T00:05:00.180Z,90
2024-04-25T00:10:00.191Z,90
2024-04-25T00:15:00.156Z,91
2024-04-25T00:20:00.241Z,91
2024-04-25T00:25:00.142Z,92
2024-04-25T00:30:00.223Z,92
2024-04-25T00:35:00.233Z,93
2024-04-25T00:40:00.107Z,93
2024-04-25T00:45:00.156Z,93
2024-04-25T00:50:00.208Z,94
2024-04-25T00:55:00.163Z,94
2024-04-25T01:00:00.152Z,94
2024-04-25T01:05:00.149Z,95
2024-04-25T01:10:00.205Z,95
2024-04-25T01:15:00.174Z,94
2024-04-25T01:20:00.190Z,94
2024-04-25T01:25:00.150Z,95
2024-04-25T01:30:00.176Z,95
2024-04-25T01:35:00.165Z,96
2024-04-25T01:40:00.254Z,96
2024-04-25T01:45:00.174Z,96
2024-04-25T01:50:00.185Z,96
2024-04-25T01:55:00.186Z,96
2024-04-25T02:00:00.263Z,96
2024-04-25T02:05:00.167Z,96
2024-04-25T02:10:00.120Z,96
2024-04-25T02:15:00.252Z,96
2024-04-25T02:20:00.159Z,96
2024-04-25T02:25:00.159Z,96
2024-04-25T02:30:00.201Z,96
2024-04-25T02:35:00.155Z,96
2024-04-25T02:40:00.121Z,96
2024-04-25T02:45:00.113Z,96
2024-04-25T02:50:00.226Z,96
2024-04-25T02:55:00.229Z,96
2024-04-25T03:00:00.224Z,96
2024-04-25T03:05:00.167Z,96
2024-04-25T03:10:00.254Z,96
2024-04-25T03:15:00.136Z,95
2024-04-25T03:20:00.105Z,96
2024-04-25T03:25:00.225Z,96
2024-04-25T03:30:00.327Z,96
2024-04-25T03:35:00.132Z,96
2024-04-25T03:40:00.127Z,96
2024-04-25T03:45:00.135Z,96
2024-04-25T03:50:00.180Z,96
2024-04-25T03:55:00.200Z,96
2024-04-25T04:00:00.181Z,96
2024-04-25T04:05:00.154Z,96
2024-04-25T04:10:00.193Z,96
2024-04-25T04:15:00.142Z,96
2024-04-25T04:20:00.154Z,95
2024-04-25T04:25:00.128Z,95
2024-04-25T04:30:00.242Z,95
2024-04-25T04:35:00.093Z,95
2024-04-25T04:40:00.153Z,95
2024-04-25T04:45:00.247Z,95
2024-04-25T04:50:00.231Z,95
2024-04-25T04:55:00.149Z,95
2024-04-25T05:00:00.183Z,95
2024-04-25T05:05:00.162Z,95
2024-04-25T05:10:00.148Z,95
2024-04-25T05:15:00.208Z,95
2024-04-25T05:20:00.158Z,94
2024-04-25T05:25:00.178Z,94
2024-04-25T05:30:00.340Z,94
2024-04-25T05:35:02.064Z,95
2024-04-25T05:40:00.141Z,95
2024-04-25T05:45:00.156Z,95
2024-04-25T05:50:00.171Z,94
2024-04-25T05:55:00.139Z,94
2024-04-25T06:00:00.205Z,94
2024-04-25T06:05:00.125Z,94
2024-04-25T06:10:00.393Z,94
2024-04-25T06:15:00.127Z,94
2024-04-25T06:20:00.132Z,94
2024-04-25T06:25:00.136Z,94
2024-04-25T06:30:00.374Z,94
2024-04-25T06:35:00.144Z,94
2024-04-25T06:40:00.076Z,95
2024-04-25T06:45:00.248Z,95
2024-04-25T06:50:00.259Z,95
2024-04-25T06:55:00.139Z,95
2024-04-25T07:00:00.279Z,95
2024-04-25T07:05:00.408Z,95
2024-04-25T07:10:00.174Z,95
2024-04-25T07:15:00.186Z,95
2024-04-25T07:20:00.143Z,95
2024-04-25T07:25:00.180Z,94
2024-04-25T07:30:00.246Z,94
2024-04-25T07:35:00.178Z,94
2024-04-25T07:40:00.175Z,94
2024-04-25T07:45:00.141Z,94
2024-04-25T07:50:00.185Z,93
2024-04-25T07:55:00.140Z,93
2024-04-25T08:00:00.210Z,91
2024-04-25T08:05:00.197Z,90
2024-04-25T08:10:00.197Z,90
2024-04-25T08:15:00.170Z,90
2024-04-25T08:20:00.160Z,91
2024-04-25T08:25:00.143Z,74
2024-04-25T08:30:00.169Z,66
2024-04-25T08:35:00.148Z,64
2024-04-25T08:40:00.177Z,61
2024-04-25T08:45:00.184Z,61
2024-04-25T08:50:00.159Z,61
2024-04-25T08:55:00.174Z,61
2024-04-25T09:00:00.148Z,60
2024-04-25T09:05:00.116Z,60
2024-04-25T09:10:00.268Z,56
2024-04-25T09:15:00.100Z,58
2024-04-25T09:20:00.134Z,56
2024-04-25T09:25:00.141Z,54
2024-04-25T09:30:00.216Z,53
2024-04-25T09:35:02.281Z,51
2024-04-25T09:40:03.300Z,47
2024-04-25T09:45:00.139Z,42
2024-04-25T09:50:00.169Z,41
2024-04-25T09:55:00.154Z,38
2024-04-25T10:00:00.132Z,39
2024-04-25T10:05:00.160Z,41
2024-04-25T10:10:00.174Z,45
2024-04-25T10:15:00.117Z,45
2024-04-25T10:20:00.141Z,42
2024-04-25T10:25:00.123Z,38
2024-04-25T10:30:00.207Z,38
2024-04-25T10:35:00.101Z,39
2024-04-25T10:40:00.149Z,37
2024-04-25T10:45:00.190Z,34
2024-04-25T10:50:00.144Z,36
2024-04-25T10:55:00.197Z,34
2024-04-25T11:00:00.195Z,33
2024-04-25T11:05:00.129Z,33
2024-04-25T11:10:00.159Z,32
2024-04-25T11:15:00.147Z,34
2024-04-25T11:20:02.105Z,36
2024-04-25T11:25:00.093Z,38
2024-04-25T11:30:00.133Z,41
2024-04-25T11:35:00.132Z,41
2024-04-25T11:40:00.137Z,42
2024-04-25T11:45:00.133Z,44
2024-04-25T11:50:00.188Z,46
2024-04-25T11:55:00.164Z,45
2024-04-25T12:00:00.166Z,43
2024-04-25T12:05:00.206Z,40
2024-04-25T12:10:00.221Z,40
2024-04-25T12:15:00.151Z,40
2024-04-25T12:20:00.141Z,40
2024-04-25T12:25:00.149Z,39
2024-04-25T12:30:00.180Z,40
2024-04-25T12:35:00.144Z,40
2024-04-25T12:40:00.081Z,39
2024-04-25T12:45:00.082Z,38
2024-04-25T12:50:00.192Z,39
2024-04-25T12:55:00.151Z,38
2024-04-25T13:00:00.263Z,38
2024-04-25T13:05:00.151Z,38
2024-04-25T13:10:00.164Z,39
2024-04-25T13:15:00.118Z,40
2024-04-25T13:20:00.138Z,39
2024-04-25T13:25:00.142Z,39
2024-04-25T13:30:00.211Z,39
2024-04-25T13:35:00.256Z,39
2024-04-25T13:40:00.175Z,41
2024-04-25T13:45:00.167Z,45
2024-04-25T13:50:00.168Z,46
2024-04-25T13:55:00.155Z,48
2024-04-25T14:00:00.200Z,48
2024-04-25T14:05:00.177Z,47
2024-04-25T14:10:00.164Z,46
2024-04-25T14:15:00.071Z,46
2024-04-25T14:20:00.079Z,46
2024-04-25T14:25:00.145Z,47
2024-04-25T14:30:00.155Z,47
2024-04-25T14:35:00.070Z,48
2024-04-25T14:40:00.062Z,48
2024-04-25T14:45:00.068Z,48
2024-04-25T14:50:00.093Z,46
2024-04-25T14:55:00.129Z,43
2024-04-25T15:00:00.150Z,41
2024-04-25T15:05:00.150Z,41
2024-04-25T15:10:00.231Z,41
2024-04-25T15:15:05.298Z,42
2024-04-25T15:20:00.134Z,42
2024-04-25T15:25:00.116Z,42
2024-04-25T15:30:00.208Z,42
2024-04-25T15:35:00.192Z,42
2024-04-25T15:40:00.142Z,43
2024-04-25T15:45:00.124Z,44
2024-04-25T15:50:00.125Z,44
2024-04-25T15:55:00.125Z,45
2024-04-25T16:00:00.207Z,46
2024-04-25T16:05:00.074Z,47
2024-04-25T16:10:00.221Z,47
2024-04-25T16:15:00.173Z,47
2024-04-25T16:20:00.150Z,46
2024-04-25T16:25:00.138Z,48
2024-04-25T16:30:00.209Z,49
2024-04-25T16:35:00.116Z,50
2024-04-25T16:40:00.157Z,50
2024-04-25T16:45:00.149Z,51
2024-04-25T16:50:00.171Z,52
2024-04-25T16:55:00.141Z,52
2024-04-25T17:00:00.179Z,52
2024-04-25T17:05:00.178Z,52
2024-04-25T17:10:00.178Z,52
2024-04-25T17:15:00.149Z,53
2024-04-25T17:20:00.109Z,55
2024-04-25T17:25:00.248Z,57
2024-04-25T17:30:00.365Z,60
2024-04-25T17:35:01.625Z,61
2024-04-25T17:40:00.091Z,62
2024-04-25T17:45:00.154Z,63
2024-04-25T17:50:00.208Z,64
2024-04-25T17:55:00.158Z,64
2024-04-25T18:00:00.191Z,64
2024-04-25T18:05:00.127Z,64
2024-04-25T18:10:00.189Z,63
2024-04-25T18:15:00.122Z,63
2024-04-25T18:20:00.194Z,63
2024-04-25T18:25:00.120Z,62
2024-04-25T18:30:00.195Z,62
2024-04-25T18:35:00.129Z,62
2024-04-25T18:40:00.145Z,63
2024-04-25T18:45:00.186Z,63
2024-04-25T18:50:00.336Z,63
2024-04-25T18:55:00.173Z,62
2024-04-25T19:00:00.166Z,62
2024-04-25T19:05:00.137Z,61
2024-04-25T19:10:00.245Z,61
2024-04-25T19:15:00.187Z,61
2024-04-25T19:20:00.187Z,61
2024-04-25T19:25:00.188Z,61
2024-04-25T19:30:00.219Z,62
2024-04-25T19:35:00.194Z,62
2024-04-25T19:40:00.073Z,62
2024-04-25T19:45:00.122Z,63
2024-04-25T19:50:00.113Z,64
2024-04-25T19:55:00.161Z,65
2024-04-25T20:00:00.210Z,66
2024-04-25T20:05:00.139Z,67
2024-04-25T20:10:00.235Z,69
2024-04-25T20:15:02.519Z,71
2024-04-25T20:20:00.118Z,72
2024-04-25T20:25:00.170Z,74
2024-04-25T20:30:00.234Z,76
2024-04-25T20:35:00.102Z,77
2024-04-25T20:40:00.063Z,78
2024-04-25T20:45:00.205Z,78
2024-04-25T20:50:00.156Z,79
2024-04-25T21:00:00.443Z,79
2024-04-25T21:05:00.167Z,82
2024-04-25T21:10:00.237Z,82
2024-04-25T21:15:00.196Z,82
2024-04-25T21:20:00.257Z,82
2024-04-25T21:25:00.113Z,82
2024-04-25T21:30:00.292Z,82
2024-04-25T21:35:00.240Z,81
2024-04-25T21:40:00.186Z,82
2024-04-25T21:45:00.154Z,82
2024-04-25T21:50:00.243Z,82
2024-04-25T21:55:00.157Z,83
2024-04-25T22:00:00.426Z,84
2024-04-25T22:05:00.155Z,85
2024-04-25T22:10:00.224Z,86
2024-04-25T22:15:00.202Z,87
2024-04-25T22:20:00.185Z,88
2024-04-25T22:25:00.126Z,88
2024-04-25T22:30:00.440Z,89
2024-04-25T22:35:00.155Z,89
2024-04-25T22:40:00.123Z,89
2024-04-25T22:45:02.163Z,89
2024-04-25T22:50:00.207Z,89
2024-04-25T22:55:00.147Z,89
2024-04-25T23:00:00.293Z,88
2024-04-25T23:05:00.170Z,89
2024-04-25T23:10:00.172Z,89
2024-04-25T23:15:00.192Z,89
2024-04-25T23:20:00.153Z,90
2024-04-25T23:25:00.167Z,90
2024-04-25T23:30:00.198Z,90
2024-04-25T23:35:00.161Z,90
2024-04-25T23:40:00.157Z,89
2024-04-25T23:45:00.158Z,90
2024-04-25T23:50:00.176Z,90
2024-04-25T23:55:00.154Z,90
